sensor_id;sensor_type;location;lat;lon;timestamp;P1;durP1;ratioP1;P2;durP2;ratioP2
44204;SDS011;30163;42.698;23.344;2023-06-04T00:01:07;10.35;;;5.75;;
44204;SDS011;30163;42.698;23.344;2023-06-04T00:03:33;8.40;;;4.88;;
44204;SDS011;30163;42.698;23.344;2023-06-04T00:05:59;7.15;;;4.82;;
44204;SDS011;30163;42.698;23.344;2023-06-04T00:08:24;8.10;;;4.43;;
44204;SDS011;30163;42.698;23.344;2023-06-04T00:10:50;18.33;;;4.35;;
44204;SDS011;30163;42.698;23.344;2023-06-04T00:13:15;11.32;;;6.22;;
44204;SDS011;30163;42.698;23.344;2023-06-04T00:15:41;7.97;;;4.68;;
44204;SDS011;30163;42.698;23.344;2023-06-04T00:18:06;10.00;;;4.85;;
44204;SDS011;30163;42.698;23.344;2023-06-04T00:20:32;7.97;;;5.15;;
44204;SDS011;30163;42.698;23.344;2023-06-04T00:22:57;9.68;;;4.78;;
44204;SDS011;30163;42.698;23.344;2023-06-04T00:25:23;7.32;;;5.07;;
44204;SDS011;30163;42.698;23.344;2023-06-04T00:27:48;9.07;;;5.03;;
44204;SDS011;30163;42.698;23.344;2023-06-04T00:30:14;9.15;;;5.30;;
44204;SDS011;30163;42.698;23.344;2023-06-04T00:32:40;9.90;;;5.43;;
44204;SDS011;30163;42.698;23.344;2023-06-04T00:35:05;6.97;;;5.00;;
44204;SDS011;30163;42.698;23.344;2023-06-04T00:37:31;9.60;;;5.05;;
44204;SDS011;30163;42.698;23.344;2023-06-04T00:39:56;9.10;;;5.05;;
44204;SDS011;30163;42.698;23.344;2023-06-04T00:42:22;7.32;;;4.75;;
44204;SDS011;30163;42.698;23.344;2023-06-04T00:44:48;9.73;;;5.30;;
44204;SDS011;30163;42.698;23.344;2023-06-04T00:47:14;9.63;;;5.63;;
44204;SDS011;30163;42.698;23.344;2023-06-04T00:49:40;7.22;;;4.72;;
44204;SDS011;30163;42.698;23.344;2023-06-04T00:52:07;9.55;;;5.40;;
44204;SDS011;30163;42.698;23.344;2023-06-04T00:54:34;9.15;;;4.70;;
44204;SDS011;30163;42.698;23.344;2023-06-04T00:57:00;7.88;;;5.38;;
44204;SDS011;30163;42.698;23.344;2023-06-04T00:59:25;6.53;;;4.85;;
44204;SDS011;30163;42.698;23.344;2023-06-04T01:01:56;8.77;;;4.60;;
44204;SDS011;30163;42.698;23.344;2023-06-04T01:07:05;8.73;;;4.32;;
44204;SDS011;30163;42.698;23.344;2023-06-04T01:09:32;7.13;;;4.50;;
44204;SDS011;30163;42.698;23.344;2023-06-04T01:11:58;10.65;;;4.53;;
44204;SDS011;30163;42.698;23.344;2023-06-04T01:14:24;4.50;;;3.60;;
44204;SDS011;30163;42.698;23.344;2023-06-04T01:20:01;6.03;;;3.92;;
44204;SDS011;30163;42.698;23.344;2023-06-04T01:28:03;9.05;;;3.50;;
44204;SDS011;30163;42.698;23.344;2023-06-04T01:30:30;10.43;;;4.30;;
44204;SDS011;30163;42.698;23.344;2023-06-04T01:32:58;6.05;;;3.70;;
44204;SDS011;30163;42.698;23.344;2023-06-04T01:35:25;6.90;;;3.75;;
44204;SDS011;30163;42.698;23.344;2023-06-04T01:37:51;7.03;;;3.50;;
44204;SDS011;30163;42.698;23.344;2023-06-04T01:40:17;7.00;;;3.67;;
44204;SDS011;30163;42.698;23.344;2023-06-04T01:42:43;5.65;;;4.00;;
44204;SDS011;30163;42.698;23.344;2023-06-04T01:45:09;6.18;;;4.10;;
44204;SDS011;30163;42.698;23.344;2023-06-04T01:47:35;7.13;;;4.15;;
44204;SDS011;30163;42.698;23.344;2023-06-04T01:50:01;7.00;;;3.95;;
44204;SDS011;30163;42.698;23.344;2023-06-04T01:52:30;4.10;;;3.20;;
44204;SDS011;30163;42.698;23.344;2023-06-04T01:54:56;5.03;;;4.00;;
44204;SDS011;30163;42.698;23.344;2023-06-04T01:57:22;5.35;;;3.65;;
44204;SDS011;30163;42.698;23.344;2023-06-04T01:59:47;10.57;;;4.13;;
44204;SDS011;30163;42.698;23.344;2023-06-04T02:02:13;6.93;;;4.13;;
44204;SDS011;30163;42.698;23.344;2023-06-04T02:04:40;6.20;;;3.50;;
44204;SDS011;30163;42.698;23.344;2023-06-04T02:07:09;7.47;;;4.45;;
44204;SDS011;30163;42.698;23.344;2023-06-04T02:09:35;4.85;;;3.35;;
44204;SDS011;30163;42.698;23.344;2023-06-04T02:12:01;8.90;;;3.97;;
44204;SDS011;30163;42.698;23.344;2023-06-04T02:14:26;6.05;;;4.07;;
44204;SDS011;30163;42.698;23.344;2023-06-04T02:16:52;5.18;;;3.42;;
44204;SDS011;30163;42.698;23.344;2023-06-04T02:19:19;5.05;;;3.50;;
44204;SDS011;30163;42.698;23.344;2023-06-04T02:21:45;9.32;;;3.65;;
44204;SDS011;30163;42.698;23.344;2023-06-04T02:24:11;5.55;;;3.30;;
44204;SDS011;30163;42.698;23.344;2023-06-04T02:26:36;11.38;;;3.78;;
44204;SDS011;30163;42.698;23.344;2023-06-04T02:29:02;6.70;;;3.65;;
44204;SDS011;30163;42.698;23.344;2023-06-04T02:31:27;5.22;;;3.85;;
44204;SDS011;30163;42.698;23.344;2023-06-04T02:33:53;6.18;;;3.67;;
44204;SDS011;30163;42.698;23.344;2023-06-04T02:36:18;6.63;;;3.80;;
44204;SDS011;30163;42.698;23.344;2023-06-04T02:38:43;5.65;;;4.00;;
44204;SDS011;30163;42.698;23.344;2023-06-04T02:41:09;7.50;;;3.95;;
44204;SDS011;30163;42.698;23.344;2023-06-04T02:43:34;4.50;;;3.35;;
44204;SDS011;30163;42.698;23.344;2023-06-04T02:46:00;9.30;;;3.70;;
44204;SDS011;30163;42.698;23.344;2023-06-04T02:48:25;10.32;;;3.80;;
44204;SDS011;30163;42.698;23.344;2023-06-04T02:50:51;9.85;;;3.95;;
44204;SDS011;30163;42.698;23.344;2023-06-04T02:53:16;4.97;;;3.65;;
44204;SDS011;30163;42.698;23.344;2023-06-04T02:55:41;5.38;;;3.30;;
44204;SDS011;30163;42.698;23.344;2023-06-04T02:58:07;7.25;;;3.50;;
44204;SDS011;30163;42.698;23.344;2023-06-04T03:00:33;9.02;;;3.95;;
44204;SDS011;30163;42.698;23.344;2023-06-04T03:03:00;6.00;;;4.13;;
44204;SDS011;30163;42.698;23.344;2023-06-04T03:05:28;4.72;;;3.90;;
44204;SDS011;30163;42.698;23.344;2023-06-04T03:07:56;4.78;;;3.70;;
44204;SDS011;30163;42.698;23.344;2023-06-04T03:10:23;5.28;;;3.83;;
44204;SDS011;30163;42.698;23.344;2023-06-04T03:12:49;5.18;;;3.22;;
44204;SDS011;30163;42.698;23.344;2023-06-04T03:15:17;5.15;;;3.45;;
44204;SDS011;30163;42.698;23.344;2023-06-04T03:17:43;6.75;;;4.32;;
44204;SDS011;30163;42.698;23.344;2023-06-04T03:20:09;7.18;;;3.67;;
44204;SDS011;30163;42.698;23.344;2023-06-04T03:22:35;5.05;;;3.80;;
44204;SDS011;30163;42.698;23.344;2023-06-04T03:25:01;9.13;;;4.38;;
44204;SDS011;30163;42.698;23.344;2023-06-04T03:27:27;14.82;;;4.70;;
44204;SDS011;30163;42.698;23.344;2023-06-04T03:29:52;5.80;;;4.03;;
44204;SDS011;30163;42.698;23.344;2023-06-04T03:32:18;5.35;;;3.72;;
44204;SDS011;30163;42.698;23.344;2023-06-04T03:34:43;4.65;;;3.50;;
44204;SDS011;30163;42.698;23.344;2023-06-04T03:37:09;12.07;;;4.38;;
44204;SDS011;30163;42.698;23.344;2023-06-04T03:39:34;9.00;;;3.85;;
44204;SDS011;30163;42.698;23.344;2023-06-04T03:42:00;10.32;;;4.07;;
44204;SDS011;30163;42.698;23.344;2023-06-04T03:44:25;6.20;;;3.75;;
44204;SDS011;30163;42.698;23.344;2023-06-04T03:46:51;5.85;;;4.00;;
44204;SDS011;30163;42.698;23.344;2023-06-04T03:49:16;14.00;;;3.97;;
44204;SDS011;30163;42.698;23.344;2023-06-04T03:51:42;8.57;;;3.97;;
44204;SDS011;30163;42.698;23.344;2023-06-04T03:54:08;8.05;;;4.25;;
44204;SDS011;30163;42.698;23.344;2023-06-04T03:56:33;5.80;;;4.30;;
44204;SDS011;30163;42.698;23.344;2023-06-04T03:58:59;8.43;;;4.90;;
44204;SDS011;30163;42.698;23.344;2023-06-04T04:01:25;7.75;;;4.47;;
44204;SDS011;30163;42.698;23.344;2023-06-04T04:03:51;7.93;;;4.95;;
44204;SDS011;30163;42.698;23.344;2023-06-04T04:06:17;9.10;;;4.97;;
44204;SDS011;30163;42.698;23.344;2023-06-04T04:08:43;11.13;;;4.97;;
44204;SDS011;30163;42.698;23.344;2023-06-04T04:11:12;12.20;;;4.45;;
44204;SDS011;30163;42.698;23.344;2023-06-04T04:13:38;6.95;;;4.65;;
44204;SDS011;30163;42.698;23.344;2023-06-04T04:16:03;8.13;;;4.82;;
44204;SDS011;30163;42.698;23.344;2023-06-04T04:18:32;10.50;;;4.80;;
44204;SDS011;30163;42.698;23.344;2023-06-04T04:20:58;9.27;;;4.80;;
44204;SDS011;30163;42.698;23.344;2023-06-04T04:23:26;10.57;;;4.88;;
44204;SDS011;30163;42.698;23.344;2023-06-04T04:25:52;10.60;;;5.32;;
44204;SDS011;30163;42.698;23.344;2023-06-04T04:28:18;11.65;;;5.07;;
44204;SDS011;30163;42.698;23.344;2023-06-04T04:30:44;18.35;;;5.30;;
44204;SDS011;30163;42.698;23.344;2023-06-04T04:33:13;6.30;;;4.53;;
44204;SDS011;30163;42.698;23.344;2023-06-04T04:35:42;7.45;;;4.22;;
44204;SDS011;30163;42.698;23.344;2023-06-04T04:38:09;9.10;;;5.00;;
44204;SDS011;30163;42.698;23.344;2023-06-04T04:40:35;8.98;;;5.00;;
44204;SDS011;30163;42.698;23.344;2023-06-04T04:43:01;7.57;;;4.80;;
44204;SDS011;30163;42.698;23.344;2023-06-04T04:45:27;8.23;;;5.25;;
44204;SDS011;30163;42.698;23.344;2023-06-04T04:47:52;7.40;;;5.28;;
44204;SDS011;30163;42.698;23.344;2023-06-04T04:50:18;13.00;;;5.07;;
44204;SDS011;30163;42.698;23.344;2023-06-04T04:52:43;5.80;;;4.35;;
44204;SDS011;30163;42.698;23.344;2023-06-04T04:55:09;10.25;;;5.47;;
44204;SDS011;30163;42.698;23.344;2023-06-04T04:57:37;6.63;;;4.65;;
44204;SDS011;30163;42.698;23.344;2023-06-04T05:00:03;8.43;;;5.22;;
44204;SDS011;30163;42.698;23.344;2023-06-04T05:02:34;9.40;;;5.50;;
44204;SDS011;30163;42.698;23.344;2023-06-04T05:05:00;9.68;;;5.35;;
44204;SDS011;30163;42.698;23.344;2023-06-04T05:07:26;9.80;;;5.38;;
44204;SDS011;30163;42.698;23.344;2023-06-04T05:09:51;9.80;;;5.13;;
44204;SDS011;30163;42.698;23.344;2023-06-04T05:12:16;12.98;;;5.22;;
44204;SDS011;30163;42.698;23.344;2023-06-04T05:14:42;10.55;;;5.13;;
44204;SDS011;30163;42.698;23.344;2023-06-04T05:17:08;7.22;;;5.03;;
44204;SDS011;30163;42.698;23.344;2023-06-04T05:19:36;12.23;;;5.53;;
44204;SDS011;30163;42.698;23.344;2023-06-04T05:22:02;13.32;;;7.00;;
44204;SDS011;30163;42.698;23.344;2023-06-04T05:24:28;8.65;;;5.05;;
44204;SDS011;30163;42.698;23.344;2023-06-04T05:26:54;9.45;;;5.57;;
44204;SDS011;30163;42.698;23.344;2023-06-04T05:29:21;9.32;;;5.90;;
44204;SDS011;30163;42.698;23.344;2023-06-04T05:31:47;7.18;;;5.28;;
44204;SDS011;30163;42.698;23.344;2023-06-04T05:34:12;7.75;;;4.85;;
44204;SDS011;30163;42.698;23.344;2023-06-04T05:36:41;14.95;;;5.47;;
44204;SDS011;30163;42.698;23.344;2023-06-04T05:39:07;14.07;;;5.22;;
44204;SDS011;30163;42.698;23.344;2023-06-04T05:41:34;9.68;;;5.32;;
44204;SDS011;30163;42.698;23.344;2023-06-04T05:44:00;12.90;;;5.57;;
44204;SDS011;30163;42.698;23.344;2023-06-04T05:46:26;8.55;;;5.45;;
44204;SDS011;30163;42.698;23.344;2023-06-04T05:48:52;10.50;;;5.57;;
44204;SDS011;30163;42.698;23.344;2023-06-04T05:51:18;7.78;;;5.07;;
44204;SDS011;30163;42.698;23.344;2023-06-04T05:53:43;10.13;;;4.15;;
44204;SDS011;30163;42.698;23.344;2023-06-04T05:56:09;10.30;;;5.82;;
44204;SDS011;30163;42.698;23.344;2023-06-04T05:58:35;11.57;;;5.65;;
44204;SDS011;30163;42.698;23.344;2023-06-04T06:01:01;17.02;;;5.65;;
44204;SDS011;30163;42.698;23.344;2023-06-04T06:03:26;10.05;;;5.50;;
44204;SDS011;30163;42.698;23.344;2023-06-04T06:05:55;13.82;;;5.78;;
44204;SDS011;30163;42.698;23.344;2023-06-04T06:08:22;10.88;;;6.13;;
44204;SDS011;30163;42.698;23.344;2023-06-04T06:10:47;7.70;;;5.10;;
44204;SDS011;30163;42.698;23.344;2023-06-04T06:13:13;7.97;;;5.40;;
44204;SDS011;30163;42.698;23.344;2023-06-04T06:15:38;9.65;;;5.80;;
44204;SDS011;30163;42.698;23.344;2023-06-04T06:18:04;7.47;;;5.20;;
44204;SDS011;30163;42.698;23.344;2023-06-04T06:20:30;9.38;;;6.00;;
44204;SDS011;30163;42.698;23.344;2023-06-04T06:22:57;9.77;;;4.97;;
44204;SDS011;30163;42.698;23.344;2023-06-04T06:25:22;9.98;;;5.78;;
44204;SDS011;30163;42.698;23.344;2023-06-04T06:27:48;12.15;;;6.53;;
44204;SDS011;30163;42.698;23.344;2023-06-04T06:30:13;10.10;;;5.50;;
44204;SDS011;30163;42.698;23.344;2023-06-04T06:32:39;15.60;;;5.68;;
44204;SDS011;30163;42.698;23.344;2023-06-04T06:35:04;12.23;;;5.93;;
44204;SDS011;30163;42.698;23.344;2023-06-04T06:37:30;13.77;;;5.97;;
44204;SDS011;30163;42.698;23.344;2023-06-04T06:39:55;15.65;;;6.00;;
44204;SDS011;30163;42.698;23.344;2023-06-04T06:42:22;12.85;;;4.88;;
44204;SDS011;30163;42.698;23.344;2023-06-04T06:44:47;9.98;;;5.03;;
44204;SDS011;30163;42.698;23.344;2023-06-04T06:47:13;8.07;;;4.95;;
44204;SDS011;30163;42.698;23.344;2023-06-04T06:49:42;12.68;;;5.45;;
44204;SDS011;30163;42.698;23.344;2023-06-04T06:52:07;8.63;;;5.07;;
44204;SDS011;30163;42.698;23.344;2023-06-04T06:54:33;9.20;;;5.10;;
44204;SDS011;30163;42.698;23.344;2023-06-04T06:56:58;10.75;;;5.30;;
44204;SDS011;30163;42.698;23.344;2023-06-04T06:59:24;11.60;;;5.47;;
44204;SDS011;30163;42.698;23.344;2023-06-04T07:01:50;10.45;;;5.10;;
44204;SDS011;30163;42.698;23.344;2023-06-04T07:04:15;11.57;;;5.15;;
44204;SDS011;30163;42.698;23.344;2023-06-04T07:06:41;10.25;;;5.18;;
44204;SDS011;30163;42.698;23.344;2023-06-04T07:09:07;10.40;;;5.10;;
44204;SDS011;30163;42.698;23.344;2023-06-04T07:11:33;8.10;;;4.35;;
44204;SDS011;30163;42.698;23.344;2023-06-04T07:13:58;12.57;;;5.32;;
44204;SDS011;30163;42.698;23.344;2023-06-04T07:16:26;12.40;;;5.53;;
44204;SDS011;30163;42.698;23.344;2023-06-04T07:18:52;8.00;;;5.05;;
44204;SDS011;30163;42.698;23.344;2023-06-04T07:21:17;9.35;;;4.63;;
44204;SDS011;30163;42.698;23.344;2023-06-04T07:23:48;10.27;;;4.20;;
44204;SDS011;30163;42.698;23.344;2023-06-04T07:26:16;6.93;;;4.70;;
44204;SDS011;30163;42.698;23.344;2023-06-04T07:28:45;8.55;;;5.03;;
44204;SDS011;30163;42.698;23.344;2023-06-04T07:31:15;7.97;;;4.55;;
44204;SDS011;30163;42.698;23.344;2023-06-04T07:36:15;7.88;;;5.22;;
44204;SDS011;30163;42.698;23.344;2023-06-04T07:38:48;10.85;;;4.95;;
44204;SDS011;30163;42.698;23.344;2023-06-04T07:41:14;9.52;;;5.05;;
44204;SDS011;30163;42.698;23.344;2023-06-04T07:43:45;11.73;;;4.93;;
44204;SDS011;30163;42.698;23.344;2023-06-04T07:46:20;11.85;;;5.45;;
44204;SDS011;30163;42.698;23.344;2023-06-04T07:48:45;10.18;;;5.03;;
44204;SDS011;30163;42.698;23.344;2023-06-04T07:51:13;11.57;;;4.90;;
44204;SDS011;30163;42.698;23.344;2023-06-04T07:53:39;10.60;;;5.47;;
44204;SDS011;30163;42.698;23.344;2023-06-04T07:56:05;11.93;;;5.03;;
44204;SDS011;30163;42.698;23.344;2023-06-04T07:58:30;10.27;;;6.00;;
44204;SDS011;30163;42.698;23.344;2023-06-04T08:00:56;11.88;;;5.75;;
44204;SDS011;30163;42.698;23.344;2023-06-04T08:03:24;13.10;;;5.95;;
44204;SDS011;30163;42.698;23.344;2023-06-04T08:05:52;7.38;;;5.13;;
44204;SDS011;30163;42.698;23.344;2023-06-04T08:08:23;13.18;;;5.45;;
44204;SDS011;30163;42.698;23.344;2023-06-04T08:10:51;8.50;;;4.95;;
44204;SDS011;30163;42.698;23.344;2023-06-04T08:13:17;12.68;;;5.18;;
44204;SDS011;30163;42.698;23.344;2023-06-04T08:15:59;13.68;;;5.70;;
44204;SDS011;30163;42.698;23.344;2023-06-04T08:18:29;12.20;;;5.80;;
44204;SDS011;30163;42.698;23.344;2023-06-04T08:20:55;9.00;;;5.75;;
44204;SDS011;30163;42.698;23.344;2023-06-04T08:26:02;12.98;;;5.10;;
44204;SDS011;30163;42.698;23.344;2023-06-04T08:28:31;11.80;;;5.43;;
44204;SDS011;30163;42.698;23.344;2023-06-04T08:30:57;13.52;;;5.72;;
44204;SDS011;30163;42.698;23.344;2023-06-04T08:33:22;14.63;;;5.80;;
44204;SDS011;30163;42.698;23.344;2023-06-04T08:35:48;12.20;;;5.57;;
44204;SDS011;30163;42.698;23.344;2023-06-04T08:38:13;8.75;;;5.50;;
44204;SDS011;30163;42.698;23.344;2023-06-04T08:40:39;12.07;;;6.35;;
44204;SDS011;30163;42.698;23.344;2023-06-04T08:43:04;10.50;;;5.70;;
44204;SDS011;30163;42.698;23.344;2023-06-04T08:45:38;7.45;;;5.55;;
44204;SDS011;30163;42.698;23.344;2023-06-04T08:48:04;12.80;;;5.28;;
44204;SDS011;30163;42.698;23.344;2023-06-04T08:50:36;11.48;;;5.90;;
44204;SDS011;30163;42.698;23.344;2023-06-04T08:53:01;11.18;;;5.97;;
44204;SDS011;30163;42.698;23.344;2023-06-04T08:55:27;8.80;;;5.55;;
44204;SDS011;30163;42.698;23.344;2023-06-04T08:57:53;10.73;;;6.25;;
44204;SDS011;30163;42.698;23.344;2023-06-04T09:00:19;10.32;;;6.07;;
44204;SDS011;30163;42.698;23.344;2023-06-04T09:02:45;13.68;;;6.68;;
44204;SDS011;30163;42.698;23.344;2023-06-04T09:05:14;13.02;;;5.63;;
44204;SDS011;30163;42.698;23.344;2023-06-04T09:07:44;10.80;;;6.25;;
44204;SDS011;30163;42.698;23.344;2023-06-04T09:10:11;9.75;;;6.88;;
44204;SDS011;30163;42.698;23.344;2023-06-04T09:12:39;16.63;;;6.85;;
44204;SDS011;30163;42.698;23.344;2023-06-04T09:15:07;13.93;;;6.50;;
44204;SDS011;30163;42.698;23.344;2023-06-04T09:17:33;12.18;;;6.32;;
44204;SDS011;30163;42.698;23.344;2023-06-04T09:19:58;13.38;;;8.05;;
44204;SDS011;30163;42.698;23.344;2023-06-04T09:22:33;9.93;;;6.47;;
44204;SDS011;30163;42.698;23.344;2023-06-04T09:24:59;12.00;;;7.60;;
44204;SDS011;30163;42.698;23.344;2023-06-04T09:27:25;19.40;;;7.65;;
44204;SDS011;30163;42.698;23.344;2023-06-04T09:29:54;12.95;;;7.03;;
44204;SDS011;30163;42.698;23.344;2023-06-04T09:32:27;11.18;;;7.15;;
44204;SDS011;30163;42.698;23.344;2023-06-04T09:34:55;15.93;;;6.70;;
44204;SDS011;30163;42.698;23.344;2023-06-04T09:37:22;8.63;;;6.18;;
44204;SDS011;30163;42.698;23.344;2023-06-04T09:39:57;13.05;;;6.93;;
44204;SDS011;30163;42.698;23.344;2023-06-04T09:42:23;11.30;;;6.70;;
44204;SDS011;30163;42.698;23.344;2023-06-04T09:44:49;16.60;;;6.82;;
44204;SDS011;30163;42.698;23.344;2023-06-04T09:47:14;8.65;;;5.75;;
44204;SDS011;30163;42.698;23.344;2023-06-04T09:49:44;13.43;;;7.10;;
44204;SDS011;30163;42.698;23.344;2023-06-04T09:52:10;13.90;;;8.25;;
44204;SDS011;30163;42.698;23.344;2023-06-04T09:54:38;11.63;;;7.20;;
44204;SDS011;30163;42.698;23.344;2023-06-04T09:57:16;12.93;;;6.82;;
44204;SDS011;30163;42.698;23.344;2023-06-04T09:59:47;10.32;;;6.40;;
44204;SDS011;30163;42.698;23.344;2023-06-04T10:02:18;10.65;;;6.35;;
44204;SDS011;30163;42.698;23.344;2023-06-04T10:04:44;10.15;;;6.97;;
44204;SDS011;30163;42.698;23.344;2023-06-04T10:07:22;13.45;;;7.43;;
44204;SDS011;30163;42.698;23.344;2023-06-04T10:09:47;13.25;;;6.90;;
44204;SDS011;30163;42.698;23.344;2023-06-04T10:12:17;9.98;;;6.40;;
44204;SDS011;30163;42.698;23.344;2023-06-04T10:15:05;12.43;;;8.20;;
44204;SDS011;30163;42.698;23.344;2023-06-04T10:17:35;11.80;;;6.75;;
44204;SDS011;30163;42.698;23.344;2023-06-04T10:20:02;10.55;;;5.43;;
44204;SDS011;30163;42.698;23.344;2023-06-04T10:22:33;11.00;;;6.18;;
44204;SDS011;30163;42.698;23.344;2023-06-04T10:24:59;15.93;;;6.60;;
44204;SDS011;30163;42.698;23.344;2023-06-04T10:27:25;18.20;;;7.35;;
44204;SDS011;30163;42.698;23.344;2023-06-04T10:29:51;9.85;;;6.10;;
44204;SDS011;30163;42.698;23.344;2023-06-04T10:32:17;11.68;;;6.85;;
44204;SDS011;30163;42.698;23.344;2023-06-04T10:34:43;9.77;;;6.55;;
44204;SDS011;30163;42.698;23.344;2023-06-04T10:37:18;9.38;;;6.55;;
44204;SDS011;30163;42.698;23.344;2023-06-04T10:39:57;13.32;;;6.72;;
44204;SDS011;30163;42.698;23.344;2023-06-04T10:42:23;13.20;;;6.30;;
44204;SDS011;30163;42.698;23.344;2023-06-04T10:44:50;12.25;;;6.13;;
44204;SDS011;30163;42.698;23.344;2023-06-04T10:47:20;11.57;;;6.25;;
44204;SDS011;30163;42.698;23.344;2023-06-04T10:49:53;14.35;;;6.47;;
44204;SDS011;30163;42.698;23.344;2023-06-04T10:52:19;9.77;;;5.95;;
44204;SDS011;30163;42.698;23.344;2023-06-04T10:54:46;10.63;;;6.80;;
44204;SDS011;30163;42.698;23.344;2023-06-04T10:57:17;9.77;;;6.70;;
44204;SDS011;30163;42.698;23.344;2023-06-04T10:59:59;12.13;;;7.03;;
44204;SDS011;30163;42.698;23.344;2023-06-04T11:02:25;12.00;;;6.25;;
44204;SDS011;30163;42.698;23.344;2023-06-04T11:05:04;11.75;;;6.43;;
44204;SDS011;30163;42.698;23.344;2023-06-04T11:07:41;12.13;;;6.35;;
44204;SDS011;30163;42.698;23.344;2023-06-04T11:10:11;9.70;;;7.05;;
44204;SDS011;30163;42.698;23.344;2023-06-04T11:12:47;13.95;;;6.35;;
44204;SDS011;30163;42.698;23.344;2023-06-04T11:15:15;10.05;;;6.78;;
44204;SDS011;30163;42.698;23.344;2023-06-04T11:17:55;8.57;;;5.90;;
44204;SDS011;30163;42.698;23.344;2023-06-04T11:20:23;12.03;;;7.60;;
44204;SDS011;30163;42.698;23.344;2023-06-04T11:22:55;9.93;;;7.15;;
44204;SDS011;30163;42.698;23.344;2023-06-04T11:25:23;11.65;;;7.00;;
44204;SDS011;30163;42.698;23.344;2023-06-04T11:27:51;15.70;;;6.90;;
44204;SDS011;30163;42.698;23.344;2023-06-04T11:30:20;13.32;;;6.57;;
44204;SDS011;30163;42.698;23.344;2023-06-04T11:32:46;14.95;;;7.05;;
44204;SDS011;30163;42.698;23.344;2023-06-04T11:35:11;14.10;;;7.53;;
44204;SDS011;30163;42.698;23.344;2023-06-04T11:37:37;14.93;;;7.00;;
44204;SDS011;30163;42.698;23.344;2023-06-04T11:40:24;10.50;;;7.80;;
44204;SDS011;30163;42.698;23.344;2023-06-04T11:42:50;13.15;;;7.78;;
44204;SDS011;30163;42.698;23.344;2023-06-04T11:45:16;8.65;;;6.30;;
44204;SDS011;30163;42.698;23.344;2023-06-04T11:50:18;12.30;;;7.18;;
44204;SDS011;30163;42.698;23.344;2023-06-04T11:52:45;9.68;;;6.60;;
44204;SDS011;30163;42.698;23.344;2023-06-04T11:55:14;10.43;;;7.53;;
44204;SDS011;30163;42.698;23.344;2023-06-04T11:57:42;10.15;;;8.30;;
44204;SDS011;30163;42.698;23.344;2023-06-04T12:00:08;16.27;;;8.00;;
44204;SDS011;30163;42.698;23.344;2023-06-04T12:02:57;11.70;;;8.05;;
44204;SDS011;30163;42.698;23.344;2023-06-04T12:05:32;12.45;;;7.97;;
44204;SDS011;30163;42.698;23.344;2023-06-04T12:08:05;11.80;;;7.15;;
44204;SDS011;30163;42.698;23.344;2023-06-04T12:10:44;10.98;;;7.35;;
44204;SDS011;30163;42.698;23.344;2023-06-04T12:13:17;13.23;;;7.68;;
44204;SDS011;30163;42.698;23.344;2023-06-04T12:15:53;9.30;;;7.10;;
44204;SDS011;30163;42.698;23.344;2023-06-04T12:18:23;13.98;;;7.72;;
44204;SDS011;30163;42.698;23.344;2023-06-04T12:20:52;10.07;;;8.02;;
44204;SDS011;30163;42.698;23.344;2023-06-04T12:23:19;11.77;;;8.00;;
44204;SDS011;30163;42.698;23.344;2023-06-04T12:25:54;13.07;;;8.52;;
44204;SDS011;30163;42.698;23.344;2023-06-04T12:28:28;17.05;;;7.95;;
44204;SDS011;30163;42.698;23.344;2023-06-04T12:30:56;11.32;;;7.97;;
44204;SDS011;30163;42.698;23.344;2023-06-04T12:33:22;14.40;;;7.88;;
44204;SDS011;30163;42.698;23.344;2023-06-04T12:35:47;10.20;;;7.47;;
44204;SDS011;30163;42.698;23.344;2023-06-04T12:38:13;11.00;;;7.82;;
44204;SDS011;30163;42.698;23.344;2023-06-04T12:40:39;13.63;;;8.43;;
44204;SDS011;30163;42.698;23.344;2023-06-04T12:43:07;18.40;;;8.02;;
44204;SDS011;30163;42.698;23.344;2023-06-04T12:45:32;12.90;;;7.78;;
44204;SDS011;30163;42.698;23.344;2023-06-04T12:47:58;22.05;;;8.88;;
44204;SDS011;30163;42.698;23.344;2023-06-04T12:50:25;13.10;;;8.25;;
44204;SDS011;30163;42.698;23.344;2023-06-04T12:52:51;13.75;;;8.43;;
44204;SDS011;30163;42.698;23.344;2023-06-04T12:55:22;15.55;;;8.10;;
44204;SDS011;30163;42.698;23.344;2023-06-04T12:57:48;12.10;;;8.32;;
44204;SDS011;30163;42.698;23.344;2023-06-04T13:00:13;15.52;;;9.13;;
44204;SDS011;30163;42.698;23.344;2023-06-04T13:02:41;10.70;;;7.57;;
44204;SDS011;30163;42.698;23.344;2023-06-04T13:05:07;11.43;;;7.63;;
44204;SDS011;30163;42.698;23.344;2023-06-04T13:07:32;15.20;;;7.40;;
44204;SDS011;30163;42.698;23.344;2023-06-04T13:09:58;14.18;;;7.00;;
44204;SDS011;30163;42.698;23.344;2023-06-04T13:12:23;12.50;;;7.68;;
44204;SDS011;30163;42.698;23.344;2023-06-04T13:14:48;12.55;;;7.40;;
44204;SDS011;30163;42.698;23.344;2023-06-04T13:17:14;12.00;;;6.90;;
44204;SDS011;30163;42.698;23.344;2023-06-04T13:19:44;11.05;;;7.80;;
44204;SDS011;30163;42.698;23.344;2023-06-04T13:22:10;13.15;;;8.70;;
44204;SDS011;30163;42.698;23.344;2023-06-04T13:24:35;9.85;;;6.93;;
44204;SDS011;30163;42.698;23.344;2023-06-04T13:27:01;18.02;;;6.93;;
44204;SDS011;30163;42.698;23.344;2023-06-04T13:29:26;12.88;;;6.20;;
44204;SDS011;30163;42.698;23.344;2023-06-04T13:31:52;13.60;;;7.93;;
44204;SDS011;30163;42.698;23.344;2023-06-04T13:34:18;11.68;;;6.72;;
44204;SDS011;30163;42.698;23.344;2023-06-04T13:36:43;10.20;;;7.28;;
44204;SDS011;30163;42.698;23.344;2023-06-04T13:39:09;11.32;;;7.10;;
44204;SDS011;30163;42.698;23.344;2023-06-04T13:41:34;10.13;;;6.95;;
44204;SDS011;30163;42.698;23.344;2023-06-04T13:44:00;14.80;;;6.95;;
44204;SDS011;30163;42.698;23.344;2023-06-04T13:46:25;9.93;;;6.68;;
44204;SDS011;30163;42.698;23.344;2023-06-04T13:48:51;11.30;;;7.07;;
44204;SDS011;30163;42.698;23.344;2023-06-04T13:51:16;14.60;;;7.05;;
44204;SDS011;30163;42.698;23.344;2023-06-04T13:53:41;10.85;;;7.07;;
44204;SDS011;30163;42.698;23.344;2023-06-04T13:56:07;16.77;;;7.10;;
44204;SDS011;30163;42.698;23.344;2023-06-04T13:58:32;13.25;;;6.85;;
44204;SDS011;30163;42.698;23.344;2023-06-04T14:00:58;12.23;;;6.95;;
44204;SDS011;30163;42.698;23.344;2023-06-04T14:03:23;9.98;;;6.50;;
44204;SDS011;30163;42.698;23.344;2023-06-04T14:05:48;11.93;;;6.70;;
44204;SDS011;30163;42.698;23.344;2023-06-04T14:08:16;16.65;;;6.30;;
44204;SDS011;30163;42.698;23.344;2023-06-04T14:10:42;12.07;;;6.97;;
44204;SDS011;30163;42.698;23.344;2023-06-04T14:13:10;8.73;;;6.63;;
44204;SDS011;30163;42.698;23.344;2023-06-04T14:15:36;10.27;;;6.43;;
44204;SDS011;30163;42.698;23.344;2023-06-04T14:18:02;14.10;;;6.20;;
44204;SDS011;30163;42.698;23.344;2023-06-04T14:20:28;11.75;;;7.07;;
44204;SDS011;30163;42.698;23.344;2023-06-04T14:22:54;10.57;;;6.90;;
44204;SDS011;30163;42.698;23.344;2023-06-04T14:25:19;10.90;;;6.78;;
44204;SDS011;30163;42.698;23.344;2023-06-04T14:27:44;10.32;;;7.15;;
44204;SDS011;30163;42.698;23.344;2023-06-04T14:30:10;10.65;;;6.50;;
44204;SDS011;30163;42.698;23.344;2023-06-04T14:32:36;10.30;;;6.20;;
44204;SDS011;30163;42.698;23.344;2023-06-04T14:35:02;12.02;;;6.80;;
44204;SDS011;30163;42.698;23.344;2023-06-04T14:37:27;13.50;;;8.00;;
44204;SDS011;30163;42.698;23.344;2023-06-04T14:39:53;11.65;;;6.80;;
44204;SDS011;30163;42.698;23.344;2023-06-04T14:42:18;17.98;;;6.78;;
44204;SDS011;30163;42.698;23.344;2023-06-04T14:44:44;12.50;;;6.80;;
44204;SDS011;30163;42.698;23.344;2023-06-04T14:47:10;15.30;;;7.75;;